sensor_id;sensor_type;location;lat;lon;timestamp;pressure;altitude;pressure_sealevel;temperature;humidity
57248;BME280;55809;46.618;10.764;2022-08-05T00:00:09;93123.72;;;22.54;71.40
57248;BME280;55809;46.618;10.764;2022-08-05T00:02:36;93126.22;;;22.52;72.41
57248;BME280;55809;46.618;10.764;2022-08-05T00:05:04;93129.22;;;22.54;72.13
57248;BME280;55809;46.618;10.764;2022-08-05T00:07:31;93134.16;;;22.50;72.16
57248;BME280;55809;46.618;10.764;2022-08-05T00:10:00;93135.59;;;22.45;72.54
57248;BME280;55809;46.618;10.764;2022-08-05T00:12:27;93132.25;;;22.41;72.16
57248;BME280;55809;46.618;10.764;2022-08-05T00:14:54;93145.41;;;22.37;72.06
57248;BME280;55809;46.618;10.764;2022-08-05T00:17:21;93139.03;;;22.31;72.82
57248;BME280;55809;46.618;10.764;2022-08-05T00:19:48;93135.41;;;22.24;72.29
57248;BME280;55809;46.618;10.764;2022-08-05T00:22:15;93121.94;;;22.27;72.42
57248;BME280;55809;46.618;10.764;2022-08-05T00:24:42;93131.19;;;22.38;71.91
57248;BME280;55809;46.618;10.764;2022-08-05T00:27:10;93126.28;;;22.42;71.09
57248;BME280;55809;46.618;10.764;2022-08-05T00:29:37;93103.41;;;22.36;71.31
57248;BME280;55809;46.618;10.764;2022-08-05T00:32:05;93125.16;;;22.49;71.93
57248;BME280;55809;46.618;10.764;2022-08-05T00:34:33;93132.53;;;22.43;72.69
57248;BME280;55809;46.618;10.764;2022-08-05T00:37:00;93131.38;;;22.35;74.10
57248;BME280;55809;46.618;10.764;2022-08-05T00:39:27;93128.19;;;22.27;73.55
57248;BME280;55809;46.618;10.764;2022-08-05T00:41:54;93129.75;;;22.28;73.25
57248;BME280;55809;46.618;10.764;2022-08-05T00:44:22;93084.06;;;21.97;73.13
57248;BME280;55809;46.618;10.764;2022-08-05T00:46:49;93131.44;;;22.26;74.02
57248;BME280;55809;46.618;10.764;2022-08-05T00:49:16;93130.38;;;22.23;73.92
57248;BME280;55809;46.618;10.764;2022-08-05T00:51:44;93138.97;;;22.16;73.49
57248;BME280;55809;46.618;10.764;2022-08-05T00:54:11;93135.13;;;22.13;72.85
57248;BME280;55809;46.618;10.764;2022-08-05T00:56:38;93132.88;;;22.12;73.18
57248;BME280;55809;46.618;10.764;2022-08-05T00:59:06;93121.34;;;21.98;73.07
57248;BME280;55809;46.618;10.764;2022-08-05T01:01:34;93131.63;;;22.13;72.46
57248;BME280;55809;46.618;10.764;2022-08-05T01:04:02;93141.88;;;22.12;72.66
57248;BME280;55809;46.618;10.764;2022-08-05T01:06:29;93133.97;;;22.05;72.49
57248;BME280;55809;46.618;10.764;2022-08-05T01:08:56;93132.78;;;21.97;72.83
57248;BME280;55809;46.618;10.764;2022-08-05T01:11:26;93131.91;;;21.91;73.18
57248;BME280;55809;46.618;10.764;2022-08-05T01:14:02;93136.91;;;22.01;73.28
57248;BME280;55809;46.618;10.764;2022-08-05T01:16:39;93146.34;;;22.00;73.43
57248;BME280;55809;46.618;10.764;2022-08-05T01:19:18;93143.59;;;22.00;73.97
57248;BME280;55809;46.618;10.764;2022-08-05T01:22:10;93139.78;;;21.98;73.31
57248;BME280;55809;46.618;10.764;2022-08-05T01:24:50;93123.59;;;21.76;73.11
57248;BME280;55809;46.618;10.764;2022-08-05T01:27:28;93137.28;;;21.85;73.24
57248;BME280;55809;46.618;10.764;2022-08-05T01:30:02;93135.75;;;21.84;72.71
57248;BME280;55809;46.618;10.764;2022-08-05T01:32:32;93144.91;;;21.81;73.33
57248;BME280;55809;46.618;10.764;2022-08-05T01:35:02;93148.16;;;21.80;73.15
57248;BME280;55809;46.618;10.764;2022-08-05T01:37:35;93134.41;;;21.80;73.22
57248;BME280;55809;46.618;10.764;2022-08-05T01:40:04;93132.28;;;21.74;73.27
57248;BME280;55809;46.618;10.764;2022-08-05T01:42:33;93137.31;;;21.76;73.53
57248;BME280;55809;46.618;10.764;2022-08-05T01:45:05;93137.59;;;21.78;73.39
57248;BME280;55809;46.618;10.764;2022-08-05T01:47:34;93109.94;;;21.58;73.63
57248;BME280;55809;46.618;10.764;2022-08-05T01:50:04;93138.09;;;21.76;73.70
57248;BME280;55809;46.618;10.764;2022-08-05T01:52:33;93126.22;;;21.61;73.20
57248;BME280;55809;46.618;10.764;2022-08-05T01:55:05;93145.56;;;21.76;73.02
57248;BME280;55809;46.618;10.764;2022-08-05T01:57:37;93142.06;;;21.75;73.32
57248;BME280;55809;46.618;10.764;2022-08-05T02:00:08;93138.53;;;21.75;73.90
57248;BME280;55809;46.618;10.764;2022-08-05T02:02:38;93136.13;;;21.68;73.27
57248;BME280;55809;46.618;10.764;2022-08-05T02:05:11;93143.75;;;21.73;73.04
57248;BME280;55809;46.618;10.764;2022-08-05T02:07:39;93144.97;;;21.72;73.07
57248;BME280;55809;46.618;10.764;2022-08-05T02:10:08;93155.69;;;21.61;73.35
57248;BME280;55809;46.618;10.764;2022-08-05T02:12:42;93151.16;;;21.48;73.14
57248;BME280;55809;46.618;10.764;2022-08-05T02:15:16;93092.38;;;21.13;73.38
57248;BME280;55809;46.618;10.764;2022-08-05T02:17:50;93151.97;;;21.40;73.64
57248;BME280;55809;46.618;10.764;2022-08-05T02:20:21;93148.56;;;21.45;73.92
57248;BME280;55809;46.618;10.764;2022-08-05T02:22:54;93155.44;;;21.49;73.80
57248;BME280;55809;46.618;10.764;2022-08-05T02:25:24;93153.28;;;21.53;74.46
57248;BME280;55809;46.618;10.764;2022-08-05T02:27:54;93154.34;;;21.56;74.43
57248;BME280;55809;46.618;10.764;2022-08-05T02:30:25;93162.56;;;21.65;74.87
57248;BME280;55809;46.618;10.764;2022-08-05T02:32:54;93130.72;;;21.49;74.77
57248;BME280;55809;46.618;10.764;2022-08-05T02:35:24;93159.94;;;21.71;74.34
57248;BME280;55809;46.618;10.764;2022-08-05T02:37:55;93158.88;;;21.68;73.79
57248;BME280;55809;46.618;10.764;2022-08-05T02:40:24;93150.78;;;21.65;73.33
57248;BME280;55809;46.618;10.764;2022-08-05T02:42:53;93157.66;;;21.69;73.45
57248;BME280;55809;46.618;10.764;2022-08-05T02:45:24;93146.84;;;21.66;74.36
57248;BME280;55809;46.618;10.764;2022-08-05T02:47:54;93150.94;;;21.70;75.29
57248;BME280;55809;46.618;10.764;2022-08-05T02:50:23;93150.34;;;21.66;74.73
57248;BME280;55809;46.618;10.764;2022-08-05T02:52:52;93127.97;;;21.49;74.60
57248;BME280;55809;46.618;10.764;2022-08-05T02:55:21;93153.53;;;21.65;74.22
57248;BME280;55809;46.618;10.764;2022-08-05T02:57:49;93151.56;;;21.65;73.31
57248;BME280;55809;46.618;10.764;2022-08-05T03:00:16;93141.97;;;21.61;73.74
57248;BME280;55809;46.618;10.764;2022-08-05T03:02:47;93152.03;;;21.64;74.06
57248;BME280;55809;46.618;10.764;2022-08-05T03:05:15;93150.34;;;21.66;74.39
57248;BME280;55809;46.618;10.764;2022-08-05T03:07:43;93142.09;;;21.66;75.01
57248;BME280;55809;46.618;10.764;2022-08-05T03:10:13;93134.31;;;21.65;75.50
57248;BME280;55809;46.618;10.764;2022-08-05T03:12:40;93115.75;;;21.50;75.50
57248;BME280;55809;46.618;10.764;2022-08-05T03:15:09;93131.28;;;21.63;75.60
57248;BME280;55809;46.618;10.764;2022-08-05T03:17:36;93123.50;;;21.61;75.02
57248;BME280;55809;46.618;10.764;2022-08-05T03:20:06;93119.72;;;21.59;72.63
57248;BME280;55809;46.618;10.764;2022-08-05T03:22:33;93122.47;;;21.49;73.44
57248;BME280;55809;46.618;10.764;2022-08-05T03:25:00;93121.41;;;21.47;73.85
57248;BME280;55809;46.618;10.764;2022-08-05T03:27:28;93119.13;;;21.45;74.76
57248;BME280;55809;46.618;10.764;2022-08-05T03:29:56;93119.75;;;21.40;74.21
57248;BME280;55809;46.618;10.764;2022-08-05T03:32:24;93117.94;;;21.37;73.82
57248;BME280;55809;46.618;10.764;2022-08-05T03:34:51;93120.69;;;21.28;73.52
57248;BME280;55809;46.618;10.764;2022-08-05T03:37:20;93124.97;;;21.29;74.15
57248;BME280;55809;46.618;10.764;2022-08-05T03:39:51;93124.97;;;21.29;74.22
57248;BME280;55809;46.618;10.764;2022-08-05T03:42:20;93119.47;;;21.29;74.93
57248;BME280;55809;46.618;10.764;2022-08-05T03:44:47;93119.47;;;21.29;75.36
57248;BME280;55809;46.618;10.764;2022-08-05T03:47:14;93110.34;;;21.23;74.23
57248;BME280;55809;46.618;10.764;2022-08-05T03:49:41;93109.59;;;21.13;74.80
57248;BME280;55809;46.618;10.764;2022-08-05T03:52:10;93112.19;;;21.07;74.33
57248;BME280;55809;46.618;10.764;2022-08-05T03:54:47;93114.63;;;21.05;74.50
57248;BME280;55809;46.618;10.764;2022-08-05T03:57:17;93117.69;;;21.07;73.82
57248;BME280;55809;46.618;10.764;2022-08-05T03:59:54;93092.56;;;20.91;74.84
57248;BME280;55809;46.618;10.764;2022-08-05T04:02:23;93106.13;;;20.94;75.01
57248;BME280;55809;46.618;10.764;2022-08-05T04:04:51;93113.78;;;20.90;75.43
57248;BME280;55809;46.618;10.764;2022-08-05T04:07:19;93111.31;;;20.92;75.53
57248;BME280;55809;46.618;10.764;2022-08-05T04:09:48;93113.88;;;20.96;75.48
57248;BME280;55809;46.618;10.764;2022-08-05T04:12:15;93116.19;;;20.97;75.69
57248;BME280;55809;46.618;10.764;2022-08-05T04:14:42;93107.03;;;21.00;75.65
57248;BME280;55809;46.618;10.764;2022-08-05T04:17:10;93097.91;;;20.94;75.14
57248;BME280;55809;46.618;10.764;2022-08-05T04:19:41;93109.03;;;21.00;75.35
57248;BME280;55809;46.618;10.764;2022-08-05T04:22:08;93113.28;;;21.01;75.84
57248;BME280;55809;46.618;10.764;2022-08-05T04:24:35;93112.97;;;20.99;75.80
57248;BME280;55809;46.618;10.764;2022-08-05T04:27:04;93111.00;;;20.99;76.06
57248;BME280;55809;46.618;10.764;2022-08-05T04:29:31;93114.19;;;20.98;75.57
57248;BME280;55809;46.618;10.764;2022-08-05T04:31:58;93115.28;;;21.00;75.42
57248;BME280;55809;46.618;10.764;2022-08-05T04:34:25;93118.28;;;21.02;75.92
57248;BME280;55809;46.618;10.764;2022-08-05T04:36:52;93124.84;;;21.05;75.71
57248;BME280;55809;46.618;10.764;2022-08-05T04:39:20;93128.53;;;21.02;76.25
57248;BME280;55809;46.618;10.764;2022-08-05T04:41:48;93122.59;;;21.03;76.58
57248;BME280;55809;46.618;10.764;2022-08-05T04:44:17;93125.78;;;21.02;76.72
57248;BME280;55809;46.618;10.764;2022-08-05T04:46:44;93127.59;;;21.05;77.12
57248;BME280;55809;46.618;10.764;2022-08-05T04:49:11;93127.59;;;21.05;76.77
57248;BME280;55809;46.618;10.764;2022-08-05T04:51:38;93131.88;;;21.06;76.89
57248;BME280;55809;46.618;10.764;2022-08-05T04:54:05;93120.75;;;21.10;76.81
57248;BME280;55809;46.618;10.764;2022-08-05T04:56:32;93125.59;;;21.15;76.54
57248;BME280;55809;46.618;10.764;2022-08-05T04:58:59;93131.38;;;21.26;76.78
57248;BME280;55809;46.618;10.764;2022-08-05T05:01:28;93120.56;;;21.22;74.74
57248;BME280;55809;46.618;10.764;2022-08-05T05:03:55;93124.19;;;21.28;73.42
57248;BME280;55809;46.618;10.764;2022-08-05T05:06:22;93125.09;;;21.44;71.71
57248;BME280;55809;46.618;10.764;2022-08-05T05:08:50;93128.56;;;21.53;70.99
57248;BME280;55809;46.618;10.764;2022-08-05T05:11:17;93129.13;;;21.67;70.95
57248;BME280;55809;46.618;10.764;2022-08-05T05:13:44;93131.53;;;21.74;71.40
57248;BME280;55809;46.618;10.764;2022-08-05T05:16:11;93135.16;;;21.80;73.84
57248;BME280;55809;46.618;10.764;2022-08-05T05:18:41;93111.06;;;21.75;73.08
57248;BME280;55809;46.618;10.764;2022-08-05T05:21:08;93132.66;;;21.91;73.85
57248;BME280;55809;46.618;10.764;2022-08-05T05:23:35;93126.34;;;22.00;72.74
57248;BME280;55809;46.618;10.764;2022-08-05T05:26:03;93127.06;;;22.10;72.33
57248;BME280;55809;46.618;10.764;2022-08-05T05:28:30;93130.06;;;22.21;73.14
57248;BME280;55809;46.618;10.764;2022-08-05T05:30:57;93125.41;;;22.36;72.97
57248;BME280;55809;46.618;10.764;2022-08-05T05:33:24;93123.81;;;22.44;74.08
57248;BME280;55809;46.618;10.764;2022-08-05T05:35:52;93120.97;;;22.54;72.97
57248;BME280;55809;46.618;10.764;2022-08-05T05:38:19;93131.72;;;22.66;72.12
57248;BME280;55809;46.618;10.764;2022-08-05T05:40:47;93126.91;;;22.76;71.67
57248;BME280;55809;46.618;10.764;2022-08-05T05:43:14;93120.88;;;22.87;71.80
57248;BME280;55809;46.618;10.764;2022-08-05T05:45:41;93126.78;;;22.94;71.67
57248;BME280;55809;46.618;10.764;2022-08-05T05:48:08;93116.66;;;23.01;71.15
57248;BME280;55809;46.618;10.764;2022-08-05T05:50:35;93102.97;;;23.06;70.74
57248;BME280;55809;46.618;10.764;2022-08-05T05:53:06;93119.28;;;23.39;69.77
57248;BME280;55809;46.618;10.764;2022-08-05T05:55:34;93120.22;;;23.66;69.05
57248;BME280;55809;46.618;10.764;2022-08-05T05:58:01;93115.84;;;23.89;68.34
57248;BME280;55809;46.618;10.764;2022-08-05T06:00:28;93126.69;;;24.13;67.28
57248;BME280;55809;46.618;10.764;2022-08-05T06:02:55;93120.50;;;24.39;65.94
57248;BME280;55809;46.618;10.764;2022-08-05T06:05:22;93119.81;;;24.64;65.22
57248;BME280;55809;46.618;10.764;2022-08-05T06:07:49;93116.63;;;24.92;64.04
57248;BME280;55809;46.618;10.764;2022-08-05T06:10:18;93113.34;;;25.14;63.92
57248;BME280;55809;46.618;10.764;2022-08-05T06:12:45;93106.56;;;25.41;63.38
57248;BME280;55809;46.618;10.764;2022-08-05T06:15:12;93113.25;;;25.60;62.10
57248;BME280;55809;46.618;10.764;2022-08-05T06:17:39;93114.22;;;25.83;61.54
57248;BME280;55809;46.618;10.764;2022-08-05T06:20:07;93113.84;;;26.07;59.69
57248;BME280;55809;46.618;10.764;2022-08-05T06:22:34;93115.22;;;26.29;58.85
57248;BME280;55809;46.618;10.764;2022-08-05T06:25:02;93111.59;;;26.54;58.03
57248;BME280;55809;46.618;10.764;2022-08-05T06:27:31;93105.88;;;26.75;57.44
57248;BME280;55809;46.618;10.764;2022-08-05T06:29:58;93095.38;;;26.96;56.45
57248;BME280;55809;46.618;10.764;2022-08-05T06:32:26;93102.50;;;27.25;56.17
57248;BME280;55809;46.618;10.764;2022-08-05T06:34:54;93105.78;;;27.29;55.57
57248;BME280;55809;46.618;10.764;2022-08-05T06:37:21;93094.69;;;27.40;55.77
57248;BME280;55809;46.618;10.764;2022-08-05T06:39:48;93082.84;;;27.40;54.39
57248;BME280;55809;46.618;10.764;2022-08-05T06:42:15;93097.72;;;27.65;54.20
57248;BME280;55809;46.618;10.764;2022-08-05T06:44:44;93093.97;;;27.85;54.15
57248;BME280;55809;46.618;10.764;2022-08-05T06:47:11;93086.41;;;27.91;53.41
57248;BME280;55809;46.618;10.764;2022-08-05T06:49:38;93091.13;;;28.13;52.35
57248;BME280;55809;46.618;10.764;2022-08-05T06:52:05;93094.09;;;28.32;51.68
57248;BME280;55809;46.618;10.764;2022-08-05T06:54:32;93075.41;;;28.38;51.74
57248;BME280;55809;46.618;10.764;2022-08-05T06:56:59;93091.22;;;28.65;50.92
57248;BME280;55809;46.618;10.764;2022-08-05T06:59:26;93087.16;;;28.78;50.40
57248;BME280;55809;46.618;10.764;2022-08-05T07:01:55;93085.38;;;28.80;49.34
57248;BME280;55809;46.618;10.764;2022-08-05T07:04:22;93091.06;;;29.05;49.28
57248;BME280;55809;46.618;10.764;2022-08-05T07:06:49;93087.13;;;29.30;49.37
57248;BME280;55809;46.618;10.764;2022-08-05T07:09:16;93084.88;;;29.59;48.54
57248;BME280;55809;46.618;10.764;2022-08-05T07:11:43;93080.25;;;29.73;46.24
57248;BME280;55809;46.618;10.764;2022-08-05T07:14:10;93086.81;;;30.00;47.17
57248;BME280;55809;46.618;10.764;2022-08-05T07:16:57;93078.03;;;30.20;46.60
57248;BME280;55809;46.618;10.764;2022-08-05T07:19:27;93089.00;;;30.37;46.25
57248;BME280;55809;46.618;10.764;2022-08-05T07:21:54;93075.66;;;30.30;46.92
57248;BME280;55809;46.618;10.764;2022-08-05T07:24:22;93082.84;;;30.44;47.33
57248;BME280;55809;46.618;10.764;2022-08-05T07:26:50;93071.41;;;30.48;46.26
57248;BME280;55809;46.618;10.764;2022-08-05T07:29:17;93073.31;;;30.58;46.13
57248;BME280;55809;46.618;10.764;2022-08-05T07:31:45;93075.28;;;30.64;45.87
57248;BME280;55809;46.618;10.764;2022-08-05T07:34:14;93068.75;;;30.80;45.68
57248;BME280;55809;46.618;10.764;2022-08-05T07:36:41;93071.03;;;30.81;46.40
57248;BME280;55809;46.618;10.764;2022-08-05T07:39:08;93044.19;;;30.78;46.26
57248;BME280;55809;46.618;10.764;2022-08-05T07:41:35;93070.72;;;31.23;46.27
57248;BME280;55809;46.618;10.764;2022-08-05T07:44:05;93058.47;;;31.45;44.98
57248;BME280;55809;46.618;10.764;2022-08-05T07:46:33;93055.91;;;31.47;44.96
57248;BME280;55809;46.618;10.764;2022-08-05T07:49:01;93057.44;;;31.61;44.89
57248;BME280;55809;46.618;10.764;2022-08-05T07:51:32;93045.00;;;31.62;43.02
57248;BME280;55809;46.618;10.764;2022-08-05T07:53:59;93051.69;;;31.72;44.01
57248;BME280;55809;46.618;10.764;2022-08-05T07:56:26;93045.81;;;31.76;42.34
57248;BME280;55809;46.618;10.764;2022-08-05T07:58:53;93049.91;;;31.88;41.65
57248;BME280;55809;46.618;10.764;2022-08-05T08:01:20;93048.84;;;31.91;43.85
57248;BME280;55809;46.618;10.764;2022-08-05T08:03:50;93047.78;;;32.08;41.42
57248;BME280;55809;46.618;10.764;2022-08-05T08:06:17;93041.25;;;32.05;41.21
57248;BME280;55809;46.618;10.764;2022-08-05T08:08:46;93041.25;;;32.18;41.84
57248;BME280;55809;46.618;10.764;2022-08-05T08:11:13;93033.31;;;32.22;42.20
57248;BME280;55809;46.618;10.764;2022-08-05T08:13:41;93045.13;;;32.02;42.56
57248;BME280;55809;46.618;10.764;2022-08-05T08:16:08;93025.03;;;32.17;43.69
57248;BME280;55809;46.618;10.764;2022-08-05T08:18:38;93027.63;;;32.28;42.84
57248;BME280;55809;46.618;10.764;2022-08-05T08:21:05;93024.94;;;32.09;42.32
57248;BME280;55809;46.618;10.764;2022-08-05T08:23:32;93027.50;;;32.34;42.13
57248;BME280;55809;46.618;10.764;2022-08-05T08:26:01;93024.81;;;32.41;42.53
57248;BME280;55809;46.618;10.764;2022-08-05T08:28:29;93021.19;;;32.46;41.41
57248;BME280;55809;46.618;10.764;2022-08-05T08:30:56;93017.06;;;32.61;41.03
57248;BME280;55809;46.618;10.764;2022-08-05T08:33:23;93014.72;;;32.65;42.56
57248;BME280;55809;46.618;10.764;2022-08-05T08:35:50;93011.91;;;32.65;42.41
57248;BME280;55809;46.618;10.764;2022-08-05T08:38:17;93015.03;;;32.75;43.42
57248;BME280;55809;46.618;10.764;2022-08-05T08:40:44;93005.22;;;32.81;40.24
57248;BME280;55809;46.618;10.764;2022-08-05T08:43:15;93013.66;;;33.02;40.67
57248;BME280;55809;46.618;10.764;2022-08-05T08:45:45;93005.91;;;33.08;41.32
57248;BME280;55809;46.618;10.764;2022-08-05T08:48:15;92999.34;;;33.06;40.97
57248;BME280;55809;46.618;10.764;2022-08-05T08:50:45;93002.31;;;33.21;40.86
57248;BME280;55809;46.618;10.764;2022-08-05T08:53:15;93001.63;;;33.28;41.03
57248;BME280;55809;46.618;10.764;2022-08-05T08:55:42;92995.09;;;33.47;41.98
57248;BME280;55809;46.618;10.764;2022-08-05T08:58:10;92996.38;;;33.25;40.86
57248;BME280;55809;46.618;10.764;2022-08-05T09:00:40;92955.72;;;33.24;40.69
57248;BME280;55809;46.618;10.764;2022-08-05T09:03:08;92986.69;;;33.47;40.95
57248;BME280;55809;46.618;10.764;2022-08-05T09:05:35;92992.16;;;33.52;39.64
57248;BME280;55809;46.618;10.764;2022-08-05T09:08:03;92979.38;;;33.65;41.05
57248;BME280;55809;46.618;10.764;2022-08-05T09:10:30;92977.13;;;33.84;39.07
57248;BME280;55809;46.618;10.764;2022-08-05T09:12:57;92976.50;;;33.78;38.74
57248;BME280;55809;46.618;10.764;2022-08-05T09:15:24;92965.25;;;33.70;39.87
57248;BME280;55809;46.618;10.764;2022-08-05T09:17:53;92976.72;;;33.80;38.87
57248;BME280;55809;46.618;10.764;2022-08-05T09:20:21;92976.63;;;33.93;38.54
57248;BME280;55809;46.618;10.764;2022-08-05T09:23:05;92965.75;;;34.18;37.58
57248;BME280;55809;46.618;10.764;2022-08-05T09:25:33;92973.50;;;34.33;38.10
57248;BME280;55809;46.618;10.764;2022-08-05T09:28:12;92963.06;;;34.34;38.33
57248;BME280;55809;46.618;10.764;2022-08-05T09:30:42;92959.13;;;34.29;36.41
57248;BME280;55809;46.618;10.764;2022-08-05T09:33:11;92965.44;;;33.72;39.49
57248;BME280;55809;46.618;10.764;2022-08-05T09:35:52;92961.78;;;33.56;39.43
57248;BME280;55809;46.618;10.764;2022-08-05T09:38:19;92955.19;;;33.75;39.23
57248;BME280;55809;46.618;10.764;2022-08-05T09:40:46;92957.63;;;33.99;39.54
57248;BME280;55809;46.618;10.764;2022-08-05T09:43:25;92954.56;;;33.90;38.92
57248;BME280;55809;46.618;10.764;2022-08-05T09:45:53;92956.84;;;33.99;39.07
57248;BME280;55809;46.618;10.764;2022-08-05T09:48:23;92946.31;;;33.84;37.90
57248;BME280;55809;46.618;10.764;2022-08-05T09:50:53;92935.34;;;33.94;37.99
57248;BME280;55809;46.618;10.764;2022-08-05T09:53:20;92929.81;;;34.01;38.16
57248;BME280;55809;46.618;10.764;2022-08-05T09:55:52;92928.94;;;34.06;38.62
57248;BME280;55809;46.618;10.764;2022-08-05T09:58:20;92925.25;;;33.91;37.87
57248;BME280;55809;46.618;10.764;2022-08-05T10:00:52;92925.97;;;33.83;37.70
57248;BME280;55809;46.618;10.764;2022-08-05T10:03:22;92921.25;;;33.78;38.42
57248;BME280;55809;46.618;10.764;2022-08-05T10:06:06;92928.94;;;34.06;40.58
57248;BME280;55809;46.618;10.764;2022-08-05T10:08:34;92924.69;;;34.21;38.86
57248;BME280;55809;46.618;10.764;2022-08-05T10:11:03;92927.41;;;34.05;38.50
57248;BME280;55809;46.618;10.764;2022-08-05T10:13:33;92924.00;;;33.99;38.70
57248;BME280;55809;46.618;10.764;2022-08-05T10:16:02;92918.31;;;34.13;39.13
57248;BME280;55809;46.618;10.764;2022-08-05T10:18:32;92902.59;;;33.81;37.08
57248;BME280;55809;46.618;10.764;2022-08-05T10:21:00;92913.41;;;34.05;39.99
57248;BME280;55809;46.618;10.764;2022-08-05T10:23:29;92911.03;;;33.89;40.27
57248;BME280;55809;46.618;10.764;2022-08-05T10:25:58;92914.16;;;33.49;40.19
57248;BME280;55809;46.618;10.764;2022-08-05T10:28:26;92911.84;;;33.68;41.38
57248;BME280;55809;46.618;10.764;2022-08-05T10:30:55;92904.16;;;33.61;39.53
57248;BME280;55809;46.618;10.764;2022-08-05T10:33:23;92898.16;;;33.36;39.89
57248;BME280;55809;46.618;10.764;2022-08-05T10:35:53;92893.50;;;32.76;42.27
57248;BME280;55809;46.618;10.764;2022-08-05T10:38:23;92893.88;;;31.71;42.39
57248;BME280;55809;46.618;10.764;2022-08-05T10:40:57;92895.34;;;30.87;45.34
57248;BME280;55809;46.618;10.764;2022-08-05T10:43:33;92898.75;;;31.25;45.49
57248;BME280;55809;46.618;10.764;2022-08-05T10:46:03;92891.53;;;31.62;44.46
57248;BME280;55809;46.618;10.764;2022-08-05T10:48:32;92892.94;;;31.95;45.00
57248;BME280;55809;46.618;10.764;2022-08-05T10:51:03;92888.75;;;32.02;43.62
57248;BME280;55809;46.618;10.764;2022-08-05T10:53:39;92887.25;;;31.88;44.48
57248;BME280;55809;46.618;10.764;2022-08-05T10:56:08;92886.69;;;32.16;43.44
57248;BME280;55809;46.618;10.764;2022-08-05T10:58:47;92865.91;;;32.24;42.51
57248;BME280;55809;46.618;10.764;2022-08-05T11:01:15;92870.53;;;32.35;42.06
57248;BME280;55809;46.618;10.764;2022-08-05T11:04:02;92857.88;;;32.21;43.32
57248;BME280;55809;46.618;10.764;2022-08-05T11:06:33;92878.75;;;32.07;44.51
57248;BME280;55809;46.618;10.764;2022-08-05T11:09:11;92876.69;;;32.20;43.26
57248;BME280;55809;46.618;10.764;2022-08-05T11:11:40;92875.75;;;31.51;43.68
57248;BME280;55809;46.618;10.764;2022-08-05T11:14:10;92870.53;;;30.70;43.98
57248;BME280;55809;46.618;10.764;2022-08-05T11:16:38;92875.47;;;30.26;46.81
57248;BME280;55809;46.618;10.764;2022-08-05T11:19:25;92877.47;;;30.07;48.19
57248;BME280;55809;46.618;10.764;2022-08-05T11:21:54;92880.63;;;30.17;46.74
57248;BME280;55809;46.618;10.764;2022-08-05T11:24:21;92885.25;;;29.71;46.08
57248;BME280;55809;46.618;10.764;2022-08-05T11:27:28;92874.06;;;29.52;47.30
57248;BME280;55809;46.618;10.764;2022-08-05T11:29:59;92875.34;;;29.26;47.84
57248;BME280;55809;46.618;10.764;2022-08-05T11:32:28;92878.34;;;29.28;48.16
57248;BME280;55809;46.618;10.764;2022-08-05T11:34:55;92878.88;;;29.27;48.07
57248;BME280;55809;46.618;10.764;2022-08-05T11:37:58;92881.50;;;29.19;48.94
57248;BME280;55809;46.618;10.764;2022-08-05T11:40:56;92874.22;;;29.10;49.46
57248;BME280;55809;46.618;10.764;2022-08-05T11:43:24;92859.50;;;29.15;49.68
57248;BME280;55809;46.618;10.764;2022-08-05T11:45:52;92850.38;;;29.20;49.92
57248;BME280;55809;46.618;10.764;2022-08-05T11:48:19;92851.59;;;29.25;51.01
57248;BME280;55809;46.618;10.764;2022-08-05T11:50:48;92845.56;;;29.45;50.92
57248;BME280;55809;46.618;10.764;2022-08-05T11:53:18;92851.88;;;29.71;49.85
57248;BME280;55809;46.618;10.764;2022-08-05T11:58:29;92839.75;;;29.43;49.09
57248;BME280;55809;46.618;10.764;2022-08-05T12:01:00;92840.69;;;29.27;48.99
57248;BME280;55809;46.618;10.764;2022-08-05T12:03:28;92836.03;;;29.16;49.01
57248;BME280;55809;46.618;10.764;2022-08-05T12:06:00;92799.31;;;28.69;48.14
57248;BME280;55809;46.618;10.764;2022-08-05T12:08:29;92831.56;;;28.78;49.87
57248;BME280;55809;46.618;10.764;2022-08-05T12:10:57;92822.00;;;28.73;48.93
57248;BME280;55809;46.618;10.764;2022-08-05T12:13:25;92821.63;;;28.88;51.30
57248;BME280;55809;46.618;10.764;2022-08-05T12:15:52;92813.19;;;28.99;50.99
57248;BME280;55809;46.618;10.764;2022-08-05T12:18:26;92788.44;;;28.95;50.42
57248;BME280;55809;46.618;10.764;2022-08-05T12:20:54;92810.56;;;29.31;49.75
57248;BME280;55809;46.618;10.764;2022-08-05T12:23:21;92815.28;;;29.42;49.37
57248;BME280;55809;46.618;10.764;2022-08-05T12:25:51;92806.53;;;29.51;50.15
57248;BME280;55809;46.618;10.764;2022-08-05T12:28:36;92809.75;;;29.61;50.54
57248;BME280;55809;46.618;10.764;2022-08-05T12:31:03;92789.31;;;29.77;49.07
57248;BME280;55809;46.618;10.764;2022-08-05T12:33:31;92792.16;;;29.90;49.59
57248;BME280;55809;46.618;10.764;2022-08-05T12:35:59;92789.97;;;29.83;48.42
57248;BME280;55809;46.618;10.764;2022-08-05T12:38:27;92768.50;;;29.65;49.07
57248;BME280;55809;46.618;10.764;2022-08-05T12:40:56;92787.44;;;29.85;50.77
57248;BME280;55809;46.618;10.764;2022-08-05T12:43:23;92781.06;;;29.72;53.15
57248;BME280;55809;46.618;10.764;2022-08-05T12:45:51;92776.53;;;29.68;50.41
57248;BME280;55809;46.618;10.764;2022-08-05T12:48:19;92790.41;;;29.50;50.43
57248;BME280;55809;46.618;10.764;2022-08-05T12:51:08;92787.59;;;29.31;49.20
57248;BME280;55809;46.618;10.764;2022-08-05T12:53:39;92789.56;;;29.11;50.69
57248;BME280;55809;46.618;10.764;2022-08-05T12:56:20;92792.78;;;28.91;50.27
57248;BME280;55809;46.618;10.764;2022-08-05T12:59:10;92792.13;;;28.79;51.26
57248;BME280;55809;46.618;10.764;2022-08-05T13:01:37;92788.69;;;28.73;51.68
57248;BME280;55809;46.618;10.764;2022-08-05T13:04:05;92789.72;;;28.70;53.70